Aérodrome :
LOGIN :

S'inscrire | Disclaimer

   EN    FR    IT 

 










Légende :    VFR   VFR Marginal   IFR   IFR Intensif   IFR Très Intensif
Visi : 
Plafond : 
>= 8 km
>= 3000ft
5 à 8 km
1000 à 3000 ft
1500m à 5 km
500 à 1000 ft
800 à 1500m
200 à 500 ft
< 800m
< 200 ft
Symboles :   Orages  Brouillard  Fortes neiges  Fortes précipitations  Vent > 20 kt
SIGMETs :   Divers  Orages  Givrage  Turbulence  Onde Orograph.  Cendres Volcan.






- Altitude de l'aérodrome : 309 ft
- Code IATA : FNI


LFTW - Nîmes Garons

DERNIER METAR :
  • 271200Z AUTO 32015KT 280V340 CAVOK 20/07 Q1009 TEMPO 35017G27KT

METARs EXPIRÉS :
  • 271130Z AUTO 31013KT 280V340 CAVOK 20/07 Q1009 TEMPO 35020G30KT
  • 271100Z AUTO 30012KT CAVOK 18/06 Q1009 NOSIG
  • 271030Z AUTO 32009KT 270V360 CAVOK 19/07 Q1009 NOSIG
  • 271000Z AUTO 31010KT 270V350 CAVOK 18/07 Q1009 NOSIG
  • 270930Z AUTO 32009KT 270V010 CAVOK 18/07 Q1009 NOSIG

TAF TAF LFTW
Valide du 27 à 09h jusqu'au 28 à 09h UTC


270800Z 2709/2809 35012KT CAVOK
TEMPO 2713/2718 35017G27KT
BECMG 2720/2722 25005KT
PROB30
TEMPO 2804/2807 -SHRA SCT030TCU



MET'MAP, la Météo Aéronautique d'un coup d'oeil ! - Copyright ORBIFLY Décembre 2007 - Disclaimer

ORBIFLY MET'MAP TEAM :

Programmation & Développement : Alexandra Zaïnal
Sur une idée originale de : Baudouin d'Aumeries
Soutien technique & logistique : Manuel Goepfert
Assistance : Marc-Olivier Méhu




SOURCES & CREDITS :

   NOAA